createdAt,value
2023-02-22T00:05:44.927Z,101207.66
2023-02-22T00:09:10.728Z,101230.06
2023-02-22T00:16:42.736Z,101222.75
2023-02-22T00:20:13.150Z,101231.00
2023-02-22T00:43:15.493Z,101193.34
2023-02-22T00:49:54.252Z,101203.03
2023-02-22T00:56:08.541Z,101187.97
2023-02-22T01:06:11.337Z,101218.91
2023-02-22T01:15:21.756Z,101221.31
2023-02-22T01:17:55.165Z,101221.31
2023-02-22T01:20:34.391Z,101186.56
2023-02-22T01:23:27.341Z,101168.75
2023-02-22T01:30:35.052Z,101188.47
2023-02-22T01:33:03.869Z,101205.94
2023-02-22T01:35:34.657Z,101202.44
2023-02-22T01:38:01.984Z,101201.03
2023-02-22T01:40:37.813Z,101192.28
2023-02-22T01:43:25.859Z,101201.03
2023-02-22T01:46:01.388Z,101205.78
2023-02-22T01:48:41.521Z,101212.28
2023-02-22T01:51:13.823Z,101195.00
2023-02-22T01:53:55.143Z,101189.75
2023-02-22T01:56:25.249Z,101191.22
2023-02-22T01:59:03.974Z,101185.00
2023-02-22T02:01:30.849Z,101185.00
2023-02-22T02:04:00.818Z,101186.91
2023-02-22T02:06:32.404Z,101186.09
2023-02-22T02:09:12.359Z,101193.25
2023-02-22T02:11:40.641Z,101178.19
2023-02-22T02:14:10.743Z,101189.47
2023-02-22T02:16:41.522Z,101183.75
2023-02-22T02:19:25.035Z,101178.03
2023-02-22T02:22:12.482Z,101172.81
2023-02-22T02:25:11.247Z,101161.25
2023-02-22T02:27:55.315Z,101164.41
2023-02-22T02:30:43.677Z,101171.72
2023-02-22T02:33:19.887Z,101153.16
2023-02-22T02:36:03.871Z,101161.53
2023-02-22T02:38:55.290Z,101164.41
2023-02-22T02:41:35.133Z,101166.13
2023-02-22T02:44:11.743Z,101156.47
2023-02-22T02:46:48.265Z,101155.19
2023-02-22T02:49:35.018Z,101157.91
2023-02-22T02:52:04.707Z,101161.09
2023-02-22T02:54:33.856Z,101157.09
2023-02-22T02:57:01.273Z,101152.34
2023-02-22T02:59:32.242Z,101157.44
2023-02-22T03:02:03.981Z,101147.13
2023-02-22T03:04:49.428Z,101139.06
2023-02-22T03:07:50.660Z,101130.50
2023-02-22T03:10:55.838Z,101145.38
2023-02-22T03:13:37.978Z,101133.34
2023-02-22T03:16:22.118Z,101140.00
2023-02-22T03:19:17.201Z,101127.78
2023-02-22T03:21:56.926Z,101122.53
2023-02-22T03:24:53.388Z,101127.19
2023-02-22T03:27:29.878Z,101133.97
2023-02-22T03:30:06.044Z,101136.81
2023-02-22T03:32:40.309Z,101141.75
2023-02-22T03:35:16.135Z,101130.81
2023-02-22T03:37:47.066Z,101139.69
2023-02-22T03:40:26.234Z,101124.13
2023-02-22T03:43:04.103Z,101136.50
2023-02-22T03:45:40.696Z,101138.09
2023-02-22T03:48:19.994Z,101129.53
2023-02-22T03:50:50.047Z,101111.59
2023-02-22T03:53:19.866Z,101123.81
2023-02-22T03:55:51.907Z,101114.31
2023-02-22T03:58:25.204Z,101127.19
2023-02-22T04:00:53.656Z,101123.81
2023-02-22T04:03:22.705Z,101120.66
2023-02-22T04:05:51.135Z,101126.34
2023-02-22T04:08:19.280Z,101124.31
2023-02-22T04:10:47.953Z,101128.75
2023-02-22T04:13:17.924Z,101116.84
2023-02-22T04:15:49.078Z,101125.72
2023-02-22T04:18:17.662Z,101129.53
2023-02-22T04:20:47.779Z,101125.88
2023-02-22T04:23:23.265Z,101127.97
2023-02-22T04:25:49.850Z,101125.09
2023-02-22T04:28:19.237Z,101115.25
2023-02-22T04:31:06.393Z,101132.88
2023-02-22T04:33:33.112Z,101127.66
2023-02-22T04:35:59.760Z,101128.44
2023-02-22T04:42:49.002Z,101089.84
2023-02-22T04:46:20.413Z,101085.72
2023-02-22T05:06:34.115Z,101127.59
2023-02-22T05:20:33.280Z,101112.22
2023-02-22T05:23:01.411Z,101117.94
2023-02-22T05:25:28.315Z,101110.50
2023-02-22T05:28:01.737Z,101119.38
2023-02-22T05:30:31.554Z,101116.53
2023-02-22T05:32:59.334Z,101120.16
2023-02-22T05:35:26.982Z,101114.44
2023-02-22T05:37:53.622Z,101113.66
2023-02-22T05:40:22.745Z,101116.84
2023-02-22T05:42:50.384Z,101116.53
2023-02-22T05:45:18.991Z,101117.31
2023-02-22T05:47:45.703Z,101114.44
2023-02-22T05:50:12.481Z,101117.66
2023-02-22T05:52:39.017Z,101109.88
2023-02-22T05:55:07.416Z,101111.94
2023-02-22T05:57:34.827Z,101112.72
2023-02-22T06:00:01.865Z,101104.34
2023-02-22T06:02:28.458Z,101113.50
2023-02-22T06:04:54.946Z,101109.09
2023-02-22T06:07:22.659Z,101107.03
2023-02-22T06:09:49.040Z,101115.56
2023-02-22T06:12:16.307Z,101103.50
2023-02-22T06:14:46.089Z,101107.03
2023-02-22T06:17:14.843Z,101092.47
2023-02-22T06:19:41.479Z,101111.94
2023-02-22T06:22:08.624Z,101109.88
2023-02-22T06:24:38.682Z,101111.13
2023-02-22T06:27:06.134Z,101107.50
2023-02-22T06:29:32.824Z,101111.94
2023-02-22T06:31:59.551Z,101109.09
2023-02-22T06:34:26.174Z,101109.88
2023-02-22T06:36:53.127Z,101114.91
2023-02-22T06:39:19.691Z,101120.50
2023-02-22T06:41:47.298Z,101116.84
2023-02-22T06:44:15.290Z,101118.13
2023-02-22T06:46:51.138Z,101112.06
2023-02-22T06:49:19.310Z,101116.84
2023-02-22T06:51:47.143Z,101122.53
2023-02-22T06:54:14.249Z,101128.25
2023-02-22T06:56:40.989Z,101121.75
2023-02-22T06:59:08.923Z,101123.00
2023-02-22T07:01:36.306Z,101113.66
2023-02-22T07:04:03.000Z,101113.03
2023-02-22T07:06:29.609Z,101118.59
2023-02-22T07:08:56.181Z,101119.38
2023-02-22T07:11:22.712Z,101125.06
2023-02-22T07:13:49.323Z,101117.66
2023-02-22T07:16:16.225Z,101118.59
2023-02-22T07:18:43.252Z,101116.84
2023-02-22T07:21:10.682Z,101117.78
2023-02-22T07:23:38.118Z,101128.25
2023-02-22T07:26:05.532Z,101129.06
2023-02-22T07:28:32.461Z,101123.81
2023-02-22T07:30:59.062Z,101116.06
2023-02-22T07:33:26.841Z,101119.69
2023-02-22T07:35:53.801Z,101125.38
2023-02-22T07:38:21.006Z,101118.44
2023-02-22T07:40:47.947Z,101121.28
2023-02-22T07:43:24.506Z,101114.31
2023-02-22T07:45:55.515Z,101120.03
2023-02-22T07:48:24.026Z,101110.81
2023-02-22T07:50:51.057Z,101120.03
2023-02-22T07:53:30.330Z,101114.31
2023-02-22T07:56:02.384Z,101115.13
2023-02-22T07:58:30.397Z,101117.50
2023-02-22T08:00:58.588Z,101113.84
2023-02-22T08:03:26.857Z,101117.03
2023-02-22T08:05:56.190Z,101114.16
2023-02-22T08:08:23.880Z,101112.09
2023-02-22T08:10:51.660Z,101117.81
2023-02-22T08:13:19.481Z,101105.16
2023-02-22T08:15:47.227Z,101108.78
2023-02-22T08:18:19.143Z,101101.00
2023-02-22T08:20:47.875Z,101101.81
2023-02-22T08:23:15.490Z,101098.16
2023-02-22T08:25:42.089Z,101091.97
2023-02-22T08:28:12.120Z,101089.13
2023-02-22T08:30:42.910Z,101101.34
2023-02-22T08:33:11.050Z,101087.88
2023-02-22T08:35:37.700Z,101091.50
2023-02-22T08:38:06.748Z,101078.84
2023-02-22T08:40:36.006Z,101081.38
2023-02-22T08:43:03.519Z,101089.00
2023-02-22T08:45:30.581Z,101081.22
2023-02-22T08:47:58.612Z,101076.47
2023-02-22T08:50:32.030Z,101079.16
2023-02-22T08:53:01.423Z,101082.34
2023-02-22T08:55:32.265Z,101085.22
2023-02-22T08:58:01.435Z,101079.03
2023-02-22T09:00:29.550Z,101080.28
2023-02-22T09:02:56.253Z,101076.97
2023-02-22T09:05:23.105Z,101078.53
2023-02-22T09:07:49.632Z,101078.53
2023-02-22T09:10:20.684Z,101072.34
2023-02-22T09:12:47.302Z,101077.59
2023-02-22T09:15:15.293Z,101084.13
2023-02-22T09:17:42.062Z,101082.06
2023-02-22T09:20:10.374Z,101084.91
2023-02-22T09:22:36.938Z,101083.19
2023-02-22T09:25:15.883Z,101085.56
2023-02-22T09:27:44.050Z,101076.34
2023-02-22T09:30:24.609Z,101084.75
2023-02-22T09:32:53.749Z,101083.03
2023-02-22T09:35:26.892Z,101084.63
2023-02-22T09:37:55.643Z,101084.63
2023-02-22T09:40:29.554Z,101078.56
2023-02-22T09:43:18.000Z,101077.16
2023-02-22T09:45:54.437Z,101071.91
2023-02-22T09:48:22.794Z,101066.53
2023-02-22T09:50:53.821Z,101070.50
2023-02-22T09:53:31.830Z,101065.59
2023-02-22T09:56:20.887Z,101069.72
2023-02-22T09:58:52.260Z,101070.34
2023-02-22T10:01:39.099Z,101064.63
2023-02-22T10:04:11.199Z,101055.59
2023-02-22T10:06:42.503Z,101055.94
2023-02-22T10:09:10.015Z,101044.03
2023-02-22T10:11:43.947Z,101040.69
2023-02-22T10:14:46.461Z,101044.03
2023-02-22T10:17:19.555Z,101041.81
2023-02-22T10:19:59.893Z,101038.97
2023-02-22T10:23:05.001Z,101043.06
2023-02-22T10:25:34.999Z,101045.44
2023-02-22T10:28:18.554Z,101042.47
2023-02-22T10:31:04.339Z,101039.91
2023-02-22T10:33:36.912Z,101036.88
2023-02-22T10:36:03.935Z,101034.69
2023-02-22T10:38:33.292Z,101030.06
2023-02-22T10:41:12.897Z,101032.75
2023-02-22T10:43:41.669Z,101035.47
2023-02-22T10:46:12.701Z,101032.91
2023-02-22T10:48:43.484Z,101026.25
2023-02-22T10:51:10.800Z,101017.97
2023-02-22T10:53:38.567Z,101019.88
2023-02-22T10:56:14.580Z,101021.78
2023-02-22T10:58:52.708Z,101022.91
2023-02-22T11:01:22.428Z,101020.66
2023-02-22T11:04:11.444Z,101014.16
2023-02-22T11:06:39.478Z,101017.94
2023-02-22T11:09:18.321Z,101015.09
2023-02-22T11:11:48.264Z,101007.94
2023-02-22T11:14:29.593Z,101005.88
2023-02-22T11:16:58.686Z,101000.75
2023-02-22T11:19:31.325Z,101002.66
2023-02-22T11:22:09.593Z,100995.97
2023-02-22T11:24:50.567Z,100988.72
2023-02-22T11:27:27.122Z,100989.31
2023-02-22T11:29:54.595Z,100982.63
2023-02-22T11:32:22.495Z,100979.28
2023-02-22T11:35:00.273Z,100966.91
2023-02-22T11:37:36.752Z,100968.50
2023-02-22T11:40:05.166Z,100962.59
2023-02-22T11:42:31.711Z,100965.75
2023-02-22T11:45:09.315Z,100960.34
2023-02-22T11:47:47.051Z,100949.22
2023-02-22T11:50:40.885Z,100955.25
2023-02-22T11:53:29.405Z,100946.69
2023-02-22T11:56:35.742Z,100931.91
2023-02-22T11:59:26.528Z,100932.19
2023-02-22T12:02:30.602Z,100927.28
2023-02-22T12:05:24.432Z,100931.72
2023-02-22T12:08:20.947Z,100927.59
2023-02-22T12:10:59.583Z,100920.91
2023-02-22T12:13:43.301Z,100918.34
2023-02-22T12:16:23.125Z,100914.22
2023-02-22T12:19:22.359Z,100910.88
2023-02-22T12:21:55.652Z,100920.53
2023-02-22T12:24:27.695Z,100909.88
2023-02-22T12:26:59.855Z,100909.72
2023-02-22T12:29:33.629Z,100907.16
2023-02-22T12:32:04.787Z,100906.38
2023-02-22T12:34:38.058Z,100904.59
2023-02-22T12:37:14.204Z,100902.06
2023-02-22T12:39:53.986Z,100904.91
2023-02-22T12:42:47.362Z,100907.78
2023-02-22T12:45:34.588Z,100898.50
2023-02-22T12:48:22.436Z,100896.91
2023-02-22T12:50:56.141Z,100890.22
2023-02-22T12:53:31.706Z,100899.91
2023-02-22T12:56:16.326Z,100889.25
2023-02-22T12:58:55.473Z,100886.69
2023-02-22T13:01:27.510Z,100890.66
2023-02-22T13:03:55.735Z,100886.50
2023-02-22T13:06:53.742Z,100888.88
2023-02-22T13:09:35.649Z,100875.22
2023-02-22T13:12:07.607Z,100875.50
2023-02-22T13:14:52.890Z,100872.97
2023-02-22T13:17:25.594Z,100866.72
2023-02-22T13:20:01.480Z,100866.25
2023-02-22T13:22:45.172Z,100868.59
2023-02-22T13:25:39.276Z,100861.13
2023-02-22T13:28:22.240Z,100861.13
2023-02-22T13:31:11.661Z,100858.56
2023-02-22T13:33:57.127Z,100857.28
2023-02-22T13:36:37.550Z,100851.84
2023-02-22T13:39:14.148Z,100849.28
2023-02-22T13:41:51.952Z,100845.16
2023-02-22T13:44:37.532Z,100840.41
2023-02-22T13:47:26.174Z,100845.75
2023-02-22T13:50:18.743Z,100847.31
2023-02-22T13:52:48.745Z,100843.19
2023-02-22T13:55:20.544Z,100844.28
2023-02-22T13:57:50.820Z,100845.06
2023-02-22T14:00:23.390Z,100851.06
2023-02-22T14:03:02.356Z,100845.34
2023-02-22T14:05:47.424Z,100849.81
2023-02-22T14:08:14.048Z,100841.50
2023-02-22T14:10:43.569Z,100846.75
2023-02-22T14:13:11.162Z,100848.31
2023-02-22T14:15:57.771Z,100845.16
2023-02-22T14:18:29.356Z,100839.91
2023-02-22T14:21:05.156Z,100834.81
2023-02-22T14:23:45.368Z,100844.97
2023-02-22T14:26:30.376Z,100835.09
2023-02-22T14:29:01.013Z,100830.94
2023-02-22T14:31:50.837Z,100820.28
2023-02-22T14:34:20.262Z,100826.59
2023-02-22T14:36:53.115Z,100832.53
2023-02-22T14:39:22.378Z,100837.47
2023-02-22T14:42:11.039Z,100805.38
2023-02-22T14:44:44.718Z,100836.47
2023-02-22T14:47:29.583Z,100828.09
2023-02-22T14:50:13.188Z,100817.13
2023-02-22T14:52:42.980Z,100821.66
2023-02-22T14:55:23.789Z,100824.25
2023-02-22T14:58:02.160Z,100832.63
2023-02-22T15:00:45.916Z,100823.25
2023-02-22T15:03:37.498Z,100827.41
2023-02-22T15:06:16.002Z,100832.34
2023-02-22T15:08:48.622Z,100826.41
2023-02-22T15:11:31.136Z,100824.81
2023-02-22T15:13:58.907Z,100822.28
2023-02-22T15:16:29.626Z,100820.19
2023-02-22T15:18:59.916Z,100820.47
2023-02-22T15:21:28.829Z,100812.09
2023-02-22T15:24:02.030Z,100821.28
2023-02-22T15:26:36.202Z,100815.56
2023-02-22T15:29:09.508Z,100813.97
2023-02-22T15:31:38.969Z,100812.69
2023-02-22T15:34:14.772Z,100814.75
2023-02-22T15:36:43.431Z,100821.28
2023-02-22T15:39:29.562Z,100813.97
2023-02-22T15:42:07.863Z,100812.69
2023-02-22T15:44:43.185Z,100815.56
2023-02-22T15:47:34.940Z,100805.09
2023-02-22T15:50:30.902Z,100806.66
2023-02-22T15:53:20.113Z,100808.25
2023-02-22T15:55:49.446Z,100815.25
2023-02-22T15:58:15.875Z,100809.03
2023-02-22T16:01:06.682Z,100809.53
2023-02-22T16:03:56.264Z,100812.88
2023-02-22T16:06:37.009Z,100803.50
2023-02-22T16:09:15.942Z,100809.72
2023-02-22T16:11:44.998Z,100810.50
2023-02-22T16:14:42.549Z,100803.72
2023-02-22T16:17:49.491Z,100806.09
2023-02-22T16:20:22.054Z,100806.56
2023-02-22T16:22:50.057Z,100802.91
2023-02-22T16:25:19.942Z,100808.63
2023-02-22T16:28:03.085Z,100807.56
2023-02-22T16:30:32.543Z,100815.38
2023-02-22T16:33:00.761Z,100816.94
2023-02-22T16:35:29.339Z,100815.38
2023-02-22T16:38:02.379Z,100817.91
2023-02-22T16:40:40.024Z,100822.88
2023-02-22T16:43:09.132Z,100826.50
2023-02-22T16:45:36.055Z,100819.72
2023-02-22T16:48:15.219Z,100825.13
2023-02-22T16:50:42.043Z,100818.63
2023-02-22T16:53:08.773Z,100815.75
2023-02-22T16:55:36.688Z,100825.63
2023-02-22T16:58:04.752Z,100831.03
2023-02-22T17:00:31.856Z,100826.03
2023-02-22T17:03:02.690Z,100829.47
2023-02-22T17:05:30.502Z,100827.63
2023-02-22T17:07:57.059Z,100826.03
2023-02-22T17:10:23.847Z,100826.03
2023-02-22T17:12:53.399Z,100822.06
2023-02-22T17:15:24.712Z,100821.28
2023-02-22T17:17:53.103Z,100822.25
2023-02-22T17:20:29.895Z,100822.75
2023-02-22T17:23:05.170Z,100821.69
2023-02-22T17:25:37.071Z,100827.41
2023-02-22T17:28:04.840Z,100818.50
2023-02-22T17:30:32.756Z,100816.94
2023-02-22T17:33:03.720Z,100812.78
2023-02-22T17:35:39.124Z,100821.09
2023-02-22T17:38:06.732Z,100815.34
2023-02-22T17:40:35.113Z,100805.69
2023-02-22T17:43:01.916Z,100814.75
2023-02-22T17:45:29.496Z,100810.03
2023-02-22T17:47:58.853Z,100806.88
2023-02-22T17:50:26.324Z,100812.59
2023-02-22T17:52:52.990Z,100809.44
2023-02-22T17:55:20.769Z,100811.03
2023-02-22T17:57:51.885Z,100816.75
2023-02-22T18:00:24.798Z,100816.13
2023-02-22T18:02:51.613Z,100816.13
2023-02-22T18:05:19.006Z,100811.38
2023-02-22T18:07:45.960Z,100815.50
2023-02-22T18:10:12.799Z,100813.94
2023-02-22T18:12:39.995Z,100812.06
2023-02-22T18:15:08.755Z,100819.38
2023-02-22T18:17:36.957Z,100808.59
2023-02-22T18:20:11.570Z,100812.75
2023-02-22T18:22:41.973Z,100818.47
2023-02-22T18:25:14.286Z,100825.75
2023-02-22T18:27:44.664Z,100824.53
2023-02-22T18:30:12.099Z,100832.16
2023-02-22T18:32:39.170Z,100827.72
2023-02-22T18:35:06.927Z,100831.38
2023-02-22T18:37:34.034Z,100831.84
2023-02-22T18:40:00.936Z,100831.06
2023-02-22T18:42:28.408Z,100831.56
2023-02-22T18:45:00.612Z,100825.84
2023-02-22T18:47:27.411Z,100825.22
2023-02-22T18:49:54.106Z,100823.34
2023-02-22T18:52:21.042Z,100809.72
2023-02-22T18:54:49.491Z,100830.66
2023-02-22T18:57:16.944Z,100828.28
2023-02-22T18:59:43.897Z,100834.00
2023-02-22T19:02:15.892Z,100828.63
2023-02-22T19:04:44.109Z,100833.09
2023-02-22T19:07:10.683Z,100818.78
2023-02-22T19:09:37.131Z,100827.38
2023-02-22T19:12:03.744Z,100827.84
2023-02-22T19:14:30.273Z,100827.06
2023-02-22T19:17:01.350Z,100823.59
2023-02-22T19:19:28.083Z,100828.06
2023-02-22T19:21:56.230Z,100815.03
2023-02-22T19:24:23.279Z,100822.53
2023-02-22T19:26:57.233Z,100817.31
2023-02-22T19:29:23.821Z,100814.31
2023-02-22T19:31:51.558Z,100821.91
2023-02-22T19:34:21.734Z,100818.75
2023-02-22T19:36:48.892Z,100817.19
2023-02-22T19:39:17.558Z,100814.81
2023-02-22T19:41:44.846Z,100805.44
2023-02-22T19:44:12.243Z,100809.28
2023-02-22T19:46:39.480Z,100807.69
2023-02-22T19:49:06.810Z,100804.53
2023-02-22T19:51:33.661Z,100805.81
2023-02-22T19:54:03.133Z,100797.72
2023-02-22T19:56:31.247Z,100797.44
2023-02-22T19:59:01.218Z,100799.22
2023-02-22T20:01:33.140Z,100793.66
2023-02-22T20:04:05.443Z,100798.88
2023-02-22T20:06:35.136Z,100807.16
2023-02-22T20:09:02.734Z,100797.00
2023-02-22T20:11:29.258Z,100805.28
2023-02-22T20:13:55.958Z,100796.09
2023-02-22T20:16:23.097Z,100799.25
2023-02-22T20:18:50.063Z,100806.25
2023-02-22T20:21:30.606Z,100797.38
2023-02-22T20:23:59.276Z,100796.28
2023-02-22T20:26:27.828Z,100799.13
2023-02-22T20:28:54.563Z,100801.97
2023-02-22T20:31:21.715Z,100801.69
2023-02-22T20:33:52.504Z,100806.63
2023-02-22T20:36:19.501Z,100800.59
2023-02-22T20:38:45.935Z,100806.28
2023-02-22T20:41:15.694Z,100800.28
2023-02-22T20:43:42.338Z,100792.97
2023-02-22T20:46:08.854Z,100797.13
2023-02-22T20:48:35.346Z,100790.81
2023-02-22T20:51:06.758Z,100798.09
2023-02-22T20:53:33.373Z,100790.50
2023-02-22T20:55:59.901Z,100789.22
2023-02-22T20:58:26.384Z,100799.06
2023-02-22T21:00:52.895Z,100794.81
2023-02-22T21:03:20.744Z,100785.47
2023-02-22T21:05:47.742Z,100783.09
2023-02-22T21:08:15.565Z,100779.75
2023-02-22T21:10:46.728Z,100786.72
2023-02-22T21:13:13.599Z,100790.88
2023-02-22T21:15:43.473Z,100787.69
2023-02-22T21:18:11.191Z,100787.69
2023-02-22T21:20:40.689Z,100788.50
2023-02-22T21:23:08.230Z,100782.94
2023-02-22T21:25:35.171Z,100782.66
2023-02-22T21:28:01.617Z,100784.25
2023-02-22T21:30:28.023Z,100784.25
2023-02-22T21:32:55.329Z,100776.94
2023-02-22T21:35:23.386Z,100772.50
2023-02-22T21:37:51.021Z,100775.06
2023-02-22T21:40:20.550Z,100775.06
2023-02-22T21:42:49.021Z,100769.81
2023-02-22T21:45:18.893Z,100771.59
2023-02-22T21:47:49.038Z,100770.00
2023-02-22T21:50:18.031Z,100771.59
2023-02-22T21:52:47.241Z,100766.06
2023-02-22T21:55:15.103Z,100761.16
2023-02-22T21:57:42.860Z,100759.88
2023-02-22T22:00:18.223Z,100757.97
2023-02-22T22:02:48.087Z,100753.06
2023-02-22T22:05:27.700Z,100756.41
2023-02-22T22:07:54.135Z,100740.44
2023-02-22T22:10:26.766Z,100749.13
2023-02-22T22:12:54.136Z,100753.22
2023-02-22T22:15:20.912Z,100748.81
2023-02-22T22:17:47.444Z,100750.88
2023-02-22T22:20:15.954Z,100751.66
2023-02-22T22:22:45.389Z,100761.50
2023-02-22T22:25:14.039Z,100755.00
2023-02-22T22:27:40.662Z,100760.09
2023-02-22T22:30:08.103Z,100755.50
2023-02-22T22:32:34.978Z,100758.34
2023-02-22T22:35:01.739Z,100754.72
2023-02-22T22:37:29.047Z,100759.31
2023-02-22T22:39:55.648Z,100746.00
2023-02-22T22:42:23.964Z,100755.66
2023-02-22T22:44:51.588Z,100752.81
2023-02-22T22:47:19.336Z,100757.41
2023-02-22T22:49:47.714Z,100756.16
2023-02-22T22:52:16.391Z,100754.56
2023-02-22T22:54:43.666Z,100758.69
2023-02-22T22:57:11.309Z,100754.25
2023-02-22T22:59:39.596Z,100756.34
2023-02-22T23:02:10.651Z,100752.38
2023-02-22T23:04:37.984Z,100759.66
2023-02-22T23:07:06.582Z,100753.97
2023-02-22T23:09:34.900Z,100758.09
2023-02-22T23:12:14.995Z,100754.44
2023-02-22T23:14:45.851Z,100748.41
2023-02-22T23:17:15.857Z,100757.44
2023-02-22T23:19:47.126Z,100751.75
2023-02-22T23:22:14.160Z,100747.34
2023-02-22T23:24:40.934Z,100755.09
2023-02-22T23:27:07.882Z,100754.31
2023-02-22T23:29:38.083Z,100756.84
2023-02-22T23:32:05.973Z,100762.56
2023-02-22T23:34:33.207Z,100760.97
2023-02-22T23:36:59.846Z,100765.13
2023-02-22T23:39:26.417Z,100763.03
2023-02-22T23:41:59.123Z,100761.94
2023-02-22T23:44:27.282Z,100761.94
2023-02-22T23:46:56.638Z,100764.47
2023-02-22T23:49:26.367Z,100771.78
2023-02-22T23:51:52.828Z,100761.63
2023-02-22T23:54:24.367Z,100758.00
2023-02-22T23:56:56.759Z,100754.03
2023-02-22T23:59:27.055Z,100754.19
